Time;durP1;ratioP1;P1;durP2;ratioP2;P2;SDS_P1;SDS_P2;PMS_P1;PMS_P2;Temp;Humidity;BMP_temperature;BMP_pressure;BME280_temperature;BME280_humidity;BME280_pressure;Samples;Min_cycle;Max_cycle;Signal;HPM_P1;HPM_P2
2023/10/10 00:01:04;;;;;;;6.40;3.28;;;;;;;13.13;100.00;101810.81;6069979;23;20045;-87
2023/10/10 00:03:35;;;;;;;9.55;4.20;;;;;;;13.12;100.00;101803.81;6093957;23;20464;-86
2023/10/10 00:06:08;;;;;;;8.38;4.10;;;;;;;13.11;100.00;101804.88;6094121;23;20046;-87
2023/10/10 00:08:40;;;;;;;8.35;4.55;;;;;;;13.09;100.00;101804.34;6070496;23;20018;-87
2023/10/10 00:11:10;;;;;;;7.47;4.00;;;;;;;13.07;100.00;101807.31;6093916;23;20061;-86
2023/10/10 00:13:43;;;;;;;7.45;4.63;;;;;;;13.03;100.00;101794.63;6095741;23;20010;-87
2023/10/10 00:16:26;;;;;;;8.15;4.82;;;;;;;12.99;100.00;101790.81;6117405;23;20006;-86
2023/10/10 00:18:55;;;;;;;10.88;4.40;;;;;;;12.92;100.00;101799.13;6094074;23;20018;-86
2023/10/10 00:21:28;;;;;;;9.27;4.13;;;;;;;12.88;100.00;101791.84;6069699;23;20019;-87
2023/10/10 00:23:55;;;;;;;8.80;4.30;;;;;;;12.83;100.00;101790.75;6072375;23;20018;-88
2023/10/10 00:26:25;;;;;;;7.65;4.53;;;;;;;12.82;100.00;101799.06;6092404;23;20070;-86
2023/10/10 00:28:57;;;;;;;7.75;4.65;;;;;;;12.84;100.00;101795.03;6047739;23;20094;-86
2023/10/10 00:31:31;;;;;;;8.32;4.80;;;;;;;12.80;100.00;101791.28;6060265;23;20026;-86
2023/10/10 00:34:03;;;;;;;5.93;4.65;;;;;;;12.78;100.00;101795.25;6105793;23;20049;-86
2023/10/10 00:37:48;;;;;;;8.27;4.75;;;;;;;12.77;100.00;101786.38;6074310;23;20022;-87
2023/10/10 00:40:39;;;;;;;9.18;3.72;;;;;;;12.77;100.00;101775.63;6099373;23;20014;-88
2023/10/10 00:44:04;;;;;;;6.47;4.32;;;;;;;12.75;100.00;101791.22;6103279;23;20480;-86
2023/10/10 00:46:32;;;;;;;6.80;4.45;;;;;;;12.72;100.00;101783.66;6068682;23;20018;-87
2023/10/10 00:49:07;;;;;;;6.65;4.53;;;;;;;12.73;100.00;101790.66;6075193;23;20018;-87
2023/10/10 00:51:47;;;;;;;10.45;4.55;;;;;;;12.70;100.00;101779.63;6071913;23;20025;-87
2023/10/10 00:54:52;;;;;;;7.93;5.15;;;;;;;12.74;100.00;101786.94;6056275;23;20516;-86
2023/10/10 00:57:27;;;;;;;9.68;5.88;;;;;;;12.76;100.00;101794.72;6056185;23;20026;-88
2023/10/10 00:59:58;;;;;;;17.38;5.93;;;;;;;12.72;100.00;101783.66;6097996;23;20021;-88
2023/10/10 01:02:51;;;;;;;7.47;5.00;;;;;;;12.71;100.00;101782.03;6081465;23;20021;-84
2023/10/10 01:05:52;;;;;;;10.48;5.43;;;;;;;12.70;100.00;101779.63;6082417;23;20014;-88
2023/10/10 01:11:48;;;;;;;6.38;4.30;;;;;;;12.65;100.00;101777.69;6097557;23;20689;-86
2023/10/10 01:14:54;;;;;;;9.88;4.95;;;;;;;12.63;100.00;101779.84;5942637;24;20063;-85
2023/10/10 01:17:32;;;;;;;7.65;4.93;;;;;;;12.60;100.00;101788.44;6091105;23;20024;-86
2023/10/10 01:20:18;;;;;;;11.38;5.57;;;;;;;12.56;100.00;101780.06;6115100;23;20482;-78
2023/10/10 01:22:48;;;;;;;8.13;5.22;;;;;;;12.61;100.00;101790.06;6083796;23;20025;-79
2023/10/10 01:28:13;;;;;;;6.72;4.30;;;;;;;12.59;100.00;101784.09;6068692;23;20018;-78
2023/10/10 01:33:36;;;;;;;9.50;5.32;;;;;;;12.57;100.00;101781.69;6067685;23;20022;-75
2023/10/10 01:36:30;;;;;;;7.70;4.32;;;;;;;12.56;100.00;101785.44;6092216;23;20419;-77
2023/10/10 01:38:56;;;;;;;7.88;4.18;;;;;;;12.57;100.00;101786.25;6069264;23;20101;-76
2023/10/10 01:41:24;;;;;;;10.57;4.80;;;;;;;12.55;100.00;101783.00;6042994;23;20069;-78
2023/10/10 01:44:08;;;;;;;8.25;5.05;;;;;;;12.56;100.00;101787.31;6044293;23;20021;-76
2023/10/10 01:46:50;;;;;;;8.40;4.93;;;;;;;12.53;100.00;101785.97;6044593;23;20029;-78
2023/10/10 01:49:21;;;;;;;7.68;5.00;;;;;;;12.54;100.00;101792.97;6068715;23;20032;-77
2023/10/10 01:51:55;;;;;;;11.27;5.78;;;;;;;12.56;100.00;101784.63;6067139;23;20073;-77
2023/10/10 01:55:00;;;;;;;11.70;6.00;;;;;;;12.57;100.00;101783.56;6118628;23;20037;-77
2023/10/10 01:57:21;;;;;;;11.98;5.18;;;;;;;12.56;100.00;101781.94;6064411;23;20471;-76
2023/10/10 02:00:06;;;;;;;10.98;5.88;;;;;;;12.59;100.00;101789.47;6044324;23;20463;-77
2023/10/10 02:02:37;;;;;;;11.98;6.05;;;;;;;12.61;100.00;101800.81;6119075;23;20025;-76
2023/10/10 02:05:04;;;;;;;;;;;;;;;12.59;100.00;101797.53;6043673;23;20010;-77
2023/10/10 02:07:39;;;;;;;10.80;5.65;;;;;;;12.60;100.00;101801.03;6119061;23;19917;-78
2023/10/10 02:10:18;;;;;;;11.68;6.38;;;;;;;12.63;100.00;101795.97;6068703;23;20080;-77
2023/10/10 02:12:46;;;;;;;10.40;6.07;;;;;;;12.63;100.00;101801.34;6044752;23;20045;-77
2023/10/10 02:15:19;;;;;;;12.85;6.45;;;;;;;12.63;100.00;101801.34;6092605;23;20163;-78
2023/10/10 02:17:56;;;;;;;12.43;6.10;;;;;;;12.65;100.00;101804.56;6043533;23;20029;-79
2023/10/10 02:23:35;;;;;;;8.57;5.72;;;;;;;12.65;100.00;101815.31;6051367;23;19969;-74
2023/10/10 02:26:20;;;;;;;10.60;6.22;;;;;;;12.62;100.00;101813.16;6018298;23;20019;-75
2023/10/10 02:29:33;;;;;;;10.80;6.50;;;;;;;12.63;100.00;101812.09;6062422;23;20015;-75
2023/10/10 02:34:37;;;;;;;12.88;7.28;;;;;;;12.57;100.00;101802.38;6009315;23;20038;-74
2023/10/10 02:37:22;;;;;;;15.82;7.93;;;;;;;12.59;100.00;101813.66;6034643;23;20011;-74
2023/10/10 02:40:05;;;;;;;14.80;7.63;;;;;;;12.60;100.00;101804.56;5988361;23;20105;-73
2023/10/10 02:42:35;;;;;;;13.65;7.20;;;;;;;12.56;100.00;101798.06;6012172;23;20658;-76
2023/10/10 02:45:04;;;;;;;14.98;7.35;;;;;;;12.58;100.00;101798.63;6035272;23;20074;-75
2023/10/10 02:47:36;;;;;;;13.25;6.72;;;;;;;12.58;100.00;101798.63;6011862;23;20033;-74
2023/10/10 02:50:14;;;;;;;;;;;;;;;12.61;100.00;101802.69;5989170;23;20018;-74
2023/10/10 02:52:47;;;;;;;14.23;7.10;;;;;;;12.56;100.00;101806.13;5989415;23;20320;-75
2023/10/10 02:58:20;;;;;;;15.05;7.53;;;;;;;12.61;100.00;101813.44;6040938;23;20394;-73
2023/10/10 03:01:03;;;;;;;15.30;7.75;;;;;;;12.54;100.00;101798.31;6012155;23;20022;-74
2023/10/10 03:03:39;;;;;;;17.42;8.88;;;;;;;12.53;100.00;101790.50;6035614;23;20026;-74
2023/10/10 03:06:10;;;;;;;13.20;7.75;;;;;;;12.55;100.00;101799.13;6010928;23;20019;-74
2023/10/10 03:08:51;;;;;;;;;;;;;;;12.56;100.00;101800.75;6012877;23;20033;-76
2023/10/10 03:11:35;;;;;;;18.42;8.95;;;;;;;12.52;100.00;101797.75;6014213;23;19913;-74
2023/10/10 03:14:25;;;;;;;15.82;7.60;;;;;;;12.56;100.00;101806.13;6012892;23;20022;-77
2023/10/10 03:17:06;;;;;;;;;;;;;;;12.55;100.00;101812.56;5991218;23;20015;-76
2023/10/10 03:19:38;;;;;;;15.93;8.90;;;;;;;12.52;100.00;101805.00;6038189;23;19913;-77
2023/10/10 03:25:07;;;;;;;18.33;8.32;;;;;;;12.49;100.00;101810.91;6015848;23;20019;-75
2023/10/10 03:30:50;;;;;;;18.80;8.13;;;;;;;12.46;100.00;101797.97;6039591;23;20357;-78
2023/10/10 03:33:29;;;;;;;16.40;7.82;;;;;;;12.47;100.00;101800.44;6033786;23;20655;-78
2023/10/10 03:36:00;;;;;;;16.10;8.63;;;;;;;12.49;100.00;101805.53;6014134;23;20014;-76
2023/10/10 03:38:43;;;;;;;18.58;8.50;;;;;;;12.49;100.00;101813.59;6014468;23;20492;-79
2023/10/10 03:41:26;;;;;;;20.20;8.32;;;;;;;12.50;100.00;101812.53;6012542;23;20018;-78
2023/10/10 05:25:31;;;;;;;20.55;8.02;;;;;;;12.42;100.00;101807.63;6060895;23;19910;-78
2023/10/10 05:27:58;;;;;;;23.63;9.82;;;;;;;12.43;100.00;101806.56;6035209;23;20026;-77
2023/10/10 05:30:27;;;;;;;18.00;7.97;;;;;;;12.44;100.00;101813.53;6058996;23;20019;-77
2023/10/10 05:33:07;;;;;;;18.35;8.35;;;;;;;12.45;100.00;101815.16;6059360;23;20522;-78
2023/10/10 05:35:34;;;;;;;18.25;7.60;;;;;;;12.44;100.00;101816.22;6032720;23;20018;-78
2023/10/10 05:38:01;;;;;;;23.67;9.30;;;;;;;12.45;100.00;101809.78;6061474;23;20031;-76
2023/10/10 05:40:39;;;;;;;24.70;9.77;;;;;;;12.46;100.00;101816.78;6035624;23;20095;-79
2023/10/10 05:43:09;;;;;;;21.38;8.82;;;;;;;12.47;100.00;101811.16;6010203;23;20025;-78
2023/10/10 05:45:36;;;;;;;18.73;8.32;;;;;;;12.47;100.00;101815.75;6010668;23;20489;-78
2023/10/10 05:48:02;;;;;;;21.88;9.00;;;;;;;12.49;100.00;101821.66;6060586;23;20025;-78
2023/10/10 05:50:28;;;;;;;18.67;8.57;;;;;;;12.49;100.00;101821.66;6060603;23;20146;-78
2023/10/10 05:52:54;;;;;;;23.85;9.70;;;;;;;12.50;100.00;101824.06;6035590;23;20799;-79
2023/10/10 05:55:20;;;;;;;21.02;9.15;;;;;;;12.51;100.00;101825.69;6011592;23;20110;-81
2023/10/10 05:57:46;;;;;;;18.25;8.65;;;;;;;12.54;100.00;101821.69;6012694;23;20034;-79
2023/10/10 06:00:13;;;;;;;18.98;7.65;;;;;;;12.52;100.00;101819.25;6034462;23;20033;-80
2023/10/10 06:02:47;;;;;;;19.73;8.95;;;;;;;12.56;100.00;101816.88;6010946;23;20101;-78
2023/10/10 06:05:17;;;;;;;25.45;9.55;;;;;;;12.56;100.00;101831.13;6035180;23;20097;-79
2023/10/10 06:07:43;;;;;;;26.85;9.68;;;;;;;12.57;100.00;101819.31;6010987;23;20102;-76
2023/10/10 06:10:17;;;;;;;27.55;10.77;;;;;;;12.59;100.00;101816.34;6033641;23;20466;-79
2023/10/10 06:12:47;;;;;;;22.60;9.90;;;;;;;12.58;100.00;101826.28;6059369;23;20446;-77
2023/10/10 06:15:18;;;;;;;24.92;10.50;;;;;;;12.59;100.00;101821.72;6036090;23;20025;-73
2023/10/10 06:17:45;;;;;;;24.15;10.43;;;;;;;12.59;100.00;101816.34;6012742;23;20097;-75
2023/10/10 06:20:16;;;;;;;28.45;11.27;;;;;;;12.61;100.00;101818.81;6010595;23;20021;-79
2023/10/10 06:22:45;;;;;;;25.98;10.20;;;;;;;12.64;100.00;101823.66;5988143;23;20037;-77
2023/10/10 06:25:11;;;;;;;22.38;9.82;;;;;;;12.64;100.00;101824.47;5988404;23;20015;-79
2023/10/10 06:27:40;;;;;;;24.38;11.13;;;;;;;12.66;100.00;101835.75;6035256;23;20027;-74
2023/10/10 06:30:26;;;;;;;21.25;9.45;;;;;;;12.66;100.00;101833.06;5987292;23;20050;-73
2023/10/10 06:32:58;;;;;;;24.42;10.38;;;;;;;12.67;100.00;101828.53;6035065;23;20483;-74
2023/10/10 06:37:52;;;;;;;20.02;9.60;;;;;;;12.70;100.00;101828.00;6061566;23;20098;-78
2023/10/10 06:40:25;;;;;;;26.00;11.40;;;;;;;12.69;100.00;101827.19;6057376;23;20025;-73
2023/10/10 06:43:00;;;;;;;28.50;10.45;;;;;;;12.71;100.00;101829.63;6065559;23;20018;-75
2023/10/10 06:45:35;;;;;;;26.92;11.27;;;;;;;12.68;100.00;101830.16;6062309;23;20101;-77
2023/10/10 06:48:04;;;;;;;29.00;11.88;;;;;;;12.68;100.00;101824.78;6062031;23;20077;-76
2023/10/10 06:50:38;;;;;;;27.85;12.32;;;;;;;12.69;100.00;101824.50;6035032;23;20026;-77
2023/10/10 06:53:04;;;;;;;29.17;11.88;;;;;;;12.70;100.00;101831.50;6013025;23;20627;-78
2023/10/10 06:55:36;;;;;;;22.85;10.18;;;;;;;12.73;100.00;101822.91;6035719;23;20495;-76
2023/10/10 06:58:08;;;;;;;23.60;10.45;;;;;;;12.73;100.00;101822.91;6061270;23;20023;-73
2023/10/10 07:00:44;;;;;;;28.67;11.55;;;;;;;12.73;100.00;101811.34;6035528;23;20453;-75
2023/10/10 07:03:30;;;;;;;;;;;;;;;12.77;100.00;101823.22;6036335;23;20025;-76
2023/10/10 07:05:56;;;;;;;21.10;8.73;;;;;;;12.77;100.00;101829.41;6012127;23;19909;-76
2023/10/10 07:08:26;;;;;;;32.70;12.23;;;;;;;12.71;100.00;101830.44;6035911;23;20022;-75
2023/10/10 07:10:57;;;;;;;27.35;11.93;;;;;;;12.71;100.00;101835.00;6034599;23;20014;-74
2023/10/10 07:13:29;;;;;;;28.23;11.55;;;;;;;12.69;100.00;101832.56;6035368;23;20026;-74
2023/10/10 07:15:58;;;;;;;26.70;10.80;;;;;;;12.70;100.00;101831.50;6060588;23;20018;-74
2023/10/10 07:18:26;;;;;;;28.55;11.82;;;;;;;12.69;100.00;101827.19;6035371;23;20029;-74
2023/10/10 07:21:04;;;;;;;27.88;12.02;;;;;;;12.72;100.00;101831.22;6032685;23;20078;-74
2023/10/10 07:23:38;;;;;;;25.73;11.27;;;;;;;12.72;100.00;101826.66;6058766;23;20473;-73
2023/10/10 07:26:18;;;;;;;29.85;11.95;;;;;;;12.72;100.00;101831.22;6059616;23;20021;-74
2023/10/10 07:28:48;;;;;;;32.10;13.00;;;;;;;12.74;100.00;101840.69;6034531;23;20030;-76
2023/10/10 07:31:20;;;;;;;29.27;11.57;;;;;;;12.76;100.00;101843.91;6034461;23;20021;-74
2023/10/10 07:34:04;;;;;;;29.25;12.13;;;;;;;12.78;100.00;101840.97;5988127;23;20110;-72
2023/10/10 07:36:33;;;;;;;27.48;11.63;;;;;;;12.78;100.00;101833.72;6033411;23;20018;-73
2023/10/10 07:39:32;;;;;;;32.00;12.60;;;;;;;12.79;100.00;101832.63;5987066;23;20014;-74
2023/10/10 07:42:01;;;;;;;28.48;12.30;;;;;;;12.79;100.00;101843.38;6033575;23;20461;-74
2023/10/10 07:44:30;;;;;;;31.25;11.43;;;;;;;12.79;100.00;101835.31;6034711;23;20504;-76
2023/10/10 07:49:50;;;;;;;30.42;12.00;;;;;;;12.87;100.00;101830.53;6059614;23;20022;-77
2023/10/10 07:52:22;;;;;;;28.55;12.30;;;;;;;12.88;100.00;101835.66;6036587;23;20015;-74
2023/10/10 07:54:53;;;;;;;29.15;11.75;;;;;;;12.92;100.00;101835.94;6008839;23;20436;-75
2023/10/10 07:57:28;;;;;;;24.95;11.35;;;;;;;12.94;100.00;101828.44;6056796;23;20022;-75
2023/10/10 07:59:57;;;;;;;28.13;12.13;;;;;;;12.99;100.00;101825.78;6034300;23;20018;-74
2023/10/10 08:02:24;;;;;;;25.38;10.45;;;;;;;13.01;100.00;101829.03;6066310;23;20025;-76
2023/10/10 08:05:01;;;;;;;25.20;11.07;;;;;;;13.02;100.00;101828.78;6016837;23;20090;-75
2023/10/10 08:07:28;;;;;;;24.08;9.35;;;;;;;13.06;100.00;101827.16;6040264;23;20608;-77
2023/10/10 08:12:40;;;;;;;22.95;9.32;;;;;;;13.13;100.00;101816.19;6037453;23;20318;-76
2023/10/10 08:15:48;;;;;;;25.77;9.75;;;;;;;13.15;100.00;101813.25;6012019;23;20042;-73
2023/10/10 08:17:58;;;;;;;27.83;10.10;;;;;;;13.20;100.00;101829.41;6006100;23;20015;-77
2023/10/10 08:20:39;;;;;;;23.58;10.00;;;;;;;13.24;100.00;101823.28;5989319;23;20023;-77
2023/10/10 08:23:06;;;;;;;21.67;9.43;;;;;;;13.28;100.00;101821.69;6035171;23;20018;-75
2023/10/10 08:25:32;;;;;;;;;;;;;;;13.33;100.00;101831.66;6012039;23;20015;-75
2023/10/10 08:27:59;;;;;;;28.05;10.90;;;;;;;13.37;100.00;101822.81;6034707;23;19936;-74
2023/10/10 08:30:26;;;;;;;26.08;9.77;;;;;;;13.43;100.00;101836.28;6060312;23;20479;-74
2023/10/10 08:32:54;;;;;;;26.33;10.25;;;;;;;13.49;100.00;101835.25;6012232;23;20405;-78
2023/10/10 08:35:22;;;;;;;21.52;9.10;;;;;;;13.53;100.00;101830.94;6034781;23;20011;-74
2023/10/10 08:37:47;;;;;;;17.98;8.02;;;;;;;13.60;100.00;101831.50;6012020;23;20405;-76
2023/10/10 08:40:19;;;;;;;;;;;;;;;13.64;100.00;101829.94;6060955;23;20049;-75
2023/10/10 08:42:48;;;;;;;19.48;7.88;;;;;;;13.68;100.00;101835.56;5989840;23;19937;-76
2023/10/10 08:45:22;;;;;;;18.70;8.40;;;;;;;13.73;100.00;101833.72;5987582;23;20018;-75
2023/10/10 08:48:01;;;;;;;17.45;8.13;;;;;;;13.78;100.00;101838.31;6034618;23;20484;-72
2023/10/10 08:50:28;;;;;;;21.48;8.02;;;;;;;13.83;100.00;101839.16;5987536;23;20038;-74
2023/10/10 08:52:54;;;;;;;20.23;7.40;;;;;;;13.89;100.00;101829.22;6034710;23;20319;-74
2023/10/10 08:55:26;;;;;;;15.00;8.00;;;;;;;13.92;100.00;101821.41;6035205;23;20098;-73
2023/10/10 08:57:53;;;;;;;16.50;7.80;;;;;;;13.97;100.00;101830.56;6035592;23;20449;-74
2023/10/10 09:00:27;;;;;;;16.92;7.32;;;;;;;14.02;100.00;101822.47;6034750;23;20049;-74
2023/10/10 09:02:56;;;;;;;12.13;6.10;;;;;;;14.04;100.00;101826.56;6035246;23;20029;-74
2023/10/10 09:05:23;;;;;;;10.00;4.72;;;;;;;14.09;100.00;101812.25;6034867;23;20034;-72
2023/10/10 09:07:53;;;;;;;12.38;5.85;;;;;;;14.15;100.00;101821.97;6034885;23;20027;-73
2023/10/10 09:10:28;;;;;;;11.25;5.00;;;;;;;14.21;100.00;101816.31;6034438;23;20022;-72
2023/10/10 09:12:58;;;;;;;10.32;4.97;;;;;;;14.28;100.00;101810.69;6011114;23;20022;-73
2023/10/10 09:15:25;;;;;;;11.43;4.95;;;;;;;14.35;100.00;101822.00;6034945;23;20019;-73
2023/10/10 09:17:59;;;;;;;13.57;6.38;;;;;;;14.40;100.00;101821.19;5987310;23;20469;-73
2023/10/10 09:20:30;;;;;;;9.90;5.40;;;;;;;14.42;100.00;101825.22;6009312;23;20457;-74
2023/10/10 09:23:04;;;;;;;9.70;5.72;;;;;;;14.47;100.00;101827.97;6032426;23;20345;-74
2023/10/10 09:25:48;;;;;;;15.50;6.90;;;;;;;14.55;100.00;101825.81;6005750;23;20797;-73
2023/10/10 09:28:18;;;;;;;11.98;6.18;;;;;;;14.63;100.00;101819.88;6008245;23;20517;-72
2023/10/10 09:33:23;;;;;;;12.25;6.43;;;;;;;14.78;100.00;101825.28;5983823;23;20030;-73
2023/10/10 09:36:08;;;;;;;17.73;7.78;;;;;;;14.82;100.00;101820.13;6031903;23;20011;-73
2023/10/10 09:39:08;;;;;;;11.50;6.43;;;;;;;14.81;100.00;101823.91;5984095;23;20029;-73
2023/10/10 09:58:00;;;;;;;11.15;6.78;;;;;;;15.21;100.00;101809.53;6032647;23;20025;-74
2023/10/10 10:03:31;;;;;;;9.55;6.07;;;;;;;15.30;100.00;101802.47;6033167;23;20015;-75
2023/10/10 10:09:32;;;;;;;10.77;5.18;;;;;;;15.36;100.00;101803.28;6007721;23;20469;-73
2023/10/10 10:12:19;;;;;;;7.15;4.85;;;;;;;15.41;100.00;101790.56;5984180;23;20066;-74
2023/10/10 10:15:12;;;;;;;5.57;4.95;;;;;;;15.50;100.00;101797.00;5983628;23;20027;-73
2023/10/10 10:18:10;;;;;;;5.28;4.13;;;;;;;15.52;100.00;101792.16;6004481;23;20026;-74
2023/10/10 10:20:49;;;;;;;6.65;4.20;;;;;;;15.53;100.00;101792.97;5962301;23;20596;-74
2023/10/10 10:23:25;;;;;;;8.77;4.47;;;;;;;15.62;100.00;101785.13;6036075;23;20015;-73
2023/10/10 10:26:04;;;;;;;4.90;4.07;;;;;;;15.69;100.00;101791.03;6035431;23;20452;-73
2023/10/10 10:28:37;;;;;;;4.55;3.75;;;;;;;15.70;100.00;101792.63;6036510;23;20023;-73
2023/10/10 10:31:16;;;;;;;6.78;4.30;;;;;;;15.74;100.00;101796.41;6035627;23;20014;-75
2023/10/10 10:34:10;;;;;;;5.38;3.72;;;;;;;15.78;100.00;101800.13;6035816;23;20039;-73
2023/10/10 10:36:45;;;;;;;5.72;3.50;;;;;;;15.71;100.00;101789.63;6063827;23;20468;-72
2023/10/10 10:39:37;;;;;;;6.75;4.00;;;;;;;15.76;100.00;101792.31;6015081;23;20022;-74
2023/10/10 10:42:11;;;;;;;5.70;3.85;;;;;;;15.72;100.00;101785.88;6035383;23;20018;-73
2023/10/10 10:44:54;;;;;;;6.03;3.35;;;;;;;15.75;100.00;101785.31;6012666;23;20014;-73
2023/10/10 10:47:37;;;;;;;6.22;3.95;;;;;;;15.86;100.00;101791.47;6036521;23;20015;-74
2023/10/10 10:50:18;;;;;;;6.13;3.90;;;;;;;15.88;100.00;101780.38;6012031;23;20023;-74
2023/10/10 10:52:56;;;;;;;7.13;3.15;;;;;;;15.91;100.00;101769.81;6013269;23;20015;-74
2023/10/10 10:55:27;;;;;;;5.72;2.95;;;;;;;15.93;100.00;101750.66;6011701;23;20018;-73
2023/10/10 11:00:58;;;;;;;4.88;3.38;;;;;;;16.01;100.00;101737.34;6059959;23;20015;-73
2023/10/10 11:03:34;;;;;;;5.18;3.00;;;;;;;16.08;100.00;101737.81;6061665;23;20700;-73
2023/10/10 11:06:07;;;;;;;6.28;4.00;;;;;;;16.13;100.00;101711.84;6011628;23;20014;-73
2023/10/10 11:14:03;;;;;;;6.10;3.70;;;;;;;16.42;100.00;101680.22;6061231;23;20441;-74
2023/10/10 11:16:44;;;;;;;4.97;2.95;;;;;;;16.54;100.00;101671.72;6059409;23;20018;-73
2023/10/10 11:19:38;;;;;;;4.82;3.33;;;;;;;16.61;100.00;101670.28;6034988;23;20129;-74
2023/10/10 11:22:38;;;;;;;4.10;3.70;;;;;;;16.73;100.00;101679.91;6011190;23;20015;-73
2023/10/10 11:25:04;;;;;;;6.05;3.95;;;;;;;16.79;100.00;101662.53;6030870;23;20070;-72
2023/10/10 11:27:43;;;;;;;5.47;2.78;;;;;;;16.88;100.00;101666.22;6011996;23;20089;-74
2023/10/10 11:30:24;;;;;;;4.38;2.75;;;;;;;16.95;100.00;101658.56;6035006;23;20544;-74
2023/10/10 11:33:16;;;;;;;4.53;2.30;;;;;;;17.03;100.00;101657.91;6012324;23;20039;-75
2023/10/10 11:35:46;;;;;;;3.97;2.22;;;;;;;17.11;100.00;101645.63;6010972;23;20016;-76
2023/10/10 11:38:16;;;;;;;3.97;2.90;;;;;;;17.15;100.00;101650.19;6059912;23;20018;-76
2023/10/10 11:40:44;;;;;;;3.92;2.00;;;;;;;17.18;100.00;101636.03;6011295;23;20346;-76
2023/10/10 11:43:11;;;;;;;5.38;2.50;;;;;;;17.20;100.00;101624.91;6035097;23;20018;-75
2023/10/10 11:45:39;;;;;;;3.38;2.25;;;;;;;17.26;100.00;101621.03;6035219;23;20020;-76
2023/10/10 11:48:12;;;;;;;5.55;2.58;;;;;;;17.28;100.00;101605.34;6011661;23;20018;-76
2023/10/10 11:50:50;;;;;;;5.55;2.50;;;;;;;17.38;100.00;101615.19;6010381;23;20410;-77
2023/10/10 11:53:24;;;;;;;5.18;2.78;;;;;;;17.42;100.00;101606.19;6033710;23;20018;-77
2023/10/10 11:55:54;;;;;;;4.75;2.08;;;;;;;17.49;100.00;101611.25;6062030;23;20021;-75
2023/10/10 11:58:35;;;;;;;4.03;2.10;;;;;;;17.52;100.00;101599.81;6038814;23;20007;-75
2023/10/10 12:01:06;;;;;;;3.47;2.20;;;;;;;17.60;100.00;101606.44;5988026;23;20026;-74
2023/10/10 12:06:05;;;;;;;5.65;1.92;;;;;;;17.68;100.00;101595.75;6010588;23;20022;-75
2023/10/10 12:08:31;;;;;;;4.90;2.50;;;;;;;17.79;100.00;101592.91;6035589;23;20520;-75
2023/10/10 12:11:06;;;;;;;4.63;2.47;;;;;;;17.82;100.00;101592.31;6058264;23;20026;-78
2023/10/10 12:15:58;;;;;;;3.72;2.33;;;;;;;17.88;100.00;101591.94;6060131;23;20026;-76
2023/10/10 12:18:31;;;;;;;3.38;2.10;;;;;;;17.85;100.00;101586.28;6014169;23;20014;-76
2023/10/10 12:21:02;;;;;;;4.15;1.88;;;;;;;17.88;100.00;101588.41;6037212;23;20128;-72
2023/10/10 12:23:31;;;;;;;4.30;2.08;;;;;;;17.91;100.00;101587.81;6037954;23;20525;-74
2023/10/10 12:25:59;;;;;;;4.80;2.30;;;;;;;17.85;100.00;101591.72;6062708;23;20047;-78
2023/10/10 12:28:25;;;;;;;4.13;2.00;;;;;;;17.76;100.00;101601.63;6037117;23;20038;-75
2023/10/10 12:30:52;;;;;;;4.03;2.05;;;;;;;17.73;100.00;101595.69;6037211;23;20019;-75
2023/10/10 12:33:20;;;;;;;5.75;2.47;;;;;;;17.68;100.00;101598.47;6012044;23;20022;-75
2023/10/10 12:35:47;;;;;;;3.75;2.05;;;;;;;17.69;100.00;101600.09;6013528;23;20113;-75
2023/10/10 12:38:15;;;;;;;5.22;2.38;;;;;;;17.71;100.00;101594.38;6036354;23;20046;-76
2023/10/10 12:40:43;;;;;;;4.63;2.25;;;;;;;17.79;100.00;101587.47;6060654;23;20329;-77
2023/10/10 12:43:11;;;;;;;4.18;2.10;;;;;;;17.81;100.00;101582.56;6011644;23;20353;-76
2023/10/10 12:45:37;;;;;;;4.60;2.13;;;;;;;17.77;100.00;101584.28;6011413;23;20046;-77
2023/10/10 12:48:13;;;;;;;3.55;2.30;;;;;;;17.71;100.00;101581.66;6010845;23;20319;-72
2023/10/10 12:50:41;;;;;;;3.63;2.58;;;;;;;17.72;100.00;101585.16;6012379;23;20029;-72
2023/10/10 12:53:15;;;;;;;5.35;3.00;;;;;;;17.69;100.00;101583.03;6010971;23;20019;-78
2023/10/10 12:56:01;;;;;;;4.85;2.42;;;;;;;17.66;100.00;101584.41;6035830;23;20050;-75
2023/10/10 12:58:30;;;;;;;3.83;2.22;;;;;;;17.68;100.00;101584.13;6035242;23;20014;-78
2023/10/10 13:00:58;;;;;;;3.38;2.42;;;;;;;17.71;100.00;101581.66;6058451;23;20049;-75
2023/10/10 13:03:28;;;;;;;5.25;2.75;;;;;;;17.76;100.00;101575.34;6011240;23;20022;-77
2023/10/10 13:06:03;;;;;;;7.22;4.55;;;;;;;17.86;100.00;101568.94;5987818;23;20110;-78
2023/10/10 13:08:39;;;;;;;7.50;3.50;;;;;;;17.93;100.00;101567.44;6034703;23;20237;-77
2023/10/10 13:11:14;;;;;;;5.28;3.47;;;;;;;17.93;100.00;101566.63;6009961;23;20015;-73
2023/10/10 13:13:56;;;;;;;4.18;2.70;;;;;;;17.95;100.00;101575.25;5988809;23;20086;-73
2023/10/10 13:16:25;;;;;;;3.60;3.20;;;;;;;17.89;100.00;101576.47;6059930;23;20014;-76
2023/10/10 13:18:52;;;;;;;5.35;3.25;;;;;;;17.91;100.00;101577.78;6010357;23;20055;-74
2023/10/10 13:21:19;;;;;;;8.52;3.75;;;;;;;17.93;100.00;101585.59;6034196;23;20133;-76
2023/10/10 13:23:50;;;;;;;6.32;3.78;;;;;;;17.89;100.00;101598.97;6035166;23;20011;-74
2023/10/10 13:26:17;;;;;;;5.38;3.92;;;;;;;17.85;100.00;101587.09;6034777;23;20030;-75
2023/10/10 13:28:44;;;;;;;4.90;3.33;;;;;;;17.85;100.00;101597.13;6011018;23;20018;-77
2023/10/10 13:31:29;;;;;;;5.75;3.90;;;;;;;17.80;100.00;101595.31;6034309;23;20074;-76
2023/10/10 13:33:55;;;;;;;6.85;4.10;;;;;;;17.76;100.00;101579.97;5989415;23;20022;-76
2023/10/10 13:36:20;;;;;;;10.35;4.53;;;;;;;17.71;100.00;101573.50;6033331;23;20798;-74
2023/10/10 13:38:49;;;;;;;6.72;4.00;;;;;;;17.67;100.00;101558.91;6015898;23;20026;-74
2023/10/10 13:41:16;;;;;;;6.38;4.75;;;;;;;17.63;100.00;101559.81;6014614;23;20082;-74
2023/10/10 13:43:44;;;;;;;7.50;4.15;;;;;;;17.57;100.00;101550.97;6038327;23;20073;-74
2023/10/10 13:46:10;;;;;;;6.18;4.32;;;;;;;17.53;100.00;101547.25;6012170;23;20045;-75
2023/10/10 13:48:38;;;;;;;7.80;4.30;;;;;;;17.47;100.00;101546.53;6036523;23;20469;-75
2023/10/10 13:51:07;;;;;;;5.78;3.97;;;;;;;17.44;100.00;101540.91;5988877;23;20022;-76
2023/10/10 13:53:33;;;;;;;7.15;4.43;;;;;;;17.40;100.00;101531.75;6012349;23;20069;-78
2023/10/10 13:56:05;;;;;;;6.30;4.47;;;;;;;17.36;100.00;101541.59;6011773;23;20018;-75
2023/10/10 13:58:31;;;;;;;7.45;5.10;;;;;;;17.27;100.00;101530.59;6011885;23;20023;-77
2023/10/10 14:03:45;;;;;;;5.05;4.53;;;;;;;17.22;100.00;101519.09;6060888;23;20011;-76
2023/10/10 14:06:21;;;;;;;8.20;5.53;;;;;;;17.16;100.00;101515.66;6011239;23;20029;-76
2023/10/10 14:08:47;;;;;;;7.30;5.50;;;;;;;17.13;100.00;101514.31;5987962;23;20045;-75
2023/10/10 14:11:23;;;;;;;6.05;4.40;;;;;;;17.09;100.00;101507.09;6033176;23;20385;-75
2023/10/10 14:13:52;;;;;;;11.18;5.45;;;;;;;17.10;100.00;101490.56;6011534;23;20081;-73
2023/10/10 14:16:18;;;;;;;9.25;6.28;;;;;;;17.11;100.00;101502.19;6010542;23;20090;-77
2023/10/10 14:18:51;;;;;;;9.13;5.72;;;;;;;17.09;100.00;101499.78;6012087;23;20015;-78
2023/10/10 14:21:25;;;;;;;8.90;6.00;;;;;;;17.09;100.00;101488.16;5986999;23;20023;-76
2023/10/10 14:24:04;;;;;;;8.25;6.10;;;;;;;17.10;100.00;101497.88;6012005;23;20177;-72
2023/10/10 14:26:33;;;;;;;9.75;6.43;;;;;;;17.08;100.00;101498.19;6010557;23;20015;-76
2023/10/10 14:29:06;;;;;;;10.15;5.70;;;;;;;17.07;100.00;101502.00;6034691;23;20014;-74
2023/10/10 14:31:42;;;;;;;8.93;5.95;;;;;;;17.07;100.00;101496.56;6034689;23;20021;-74
2023/10/10 14:34:12;;;;;;;9.80;6.05;;;;;;;17.05;100.00;101496.03;5987700;23;20074;-77
2023/10/10 14:36:39;;;;;;;11.05;7.00;;;;;;;17.06;100.00;101497.66;6036230;23;20074;-74
2023/10/10 14:39:08;;;;;;;9.70;6.57;;;;;;;17.06;100.00;101494.13;6036310;23;20034;-75
2023/10/10 14:41:34;;;;;;;11.48;6.63;;;;;;;17.05;100.00;101492.53;6012032;23;20025;-76